createdAt,value
2017-06-27T00:00:08.453Z,4.50
2017-06-27T00:02:36.828Z,4.30
2017-06-27T00:05:06.354Z,4.83
2017-06-27T00:07:34.863Z,4.60
2017-06-27T00:10:05.243Z,4.87
2017-06-27T00:12:33.620Z,4.53
2017-06-27T00:15:02.005Z,3.97
2017-06-27T00:17:30.569Z,4.97
2017-06-27T00:19:59.229Z,4.77
2017-06-27T00:22:27.586Z,5.63
2017-06-27T00:24:55.968Z,4.30
2017-06-27T00:27:24.280Z,4.77
2017-06-27T00:29:52.693Z,4.83
2017-06-27T00:32:21.089Z,3.90
2017-06-27T00:34:49.420Z,5.50
2017-06-27T00:37:17.764Z,4.60
2017-06-27T00:39:46.158Z,4.90
2017-06-27T00:42:14.533Z,5.20
2017-06-27T00:44:42.955Z,6.43
2017-06-27T00:47:11.380Z,5.97
2017-06-27T00:49:40.051Z,5.00
2017-06-27T00:52:08.434Z,6.03
2017-06-27T00:54:36.808Z,6.43
2017-06-27T00:57:05.380Z,5.20
2017-06-27T00:59:33.729Z,5.33
2017-06-27T01:02:02.115Z,5.30
2017-06-27T01:04:30.516Z,5.57
2017-06-27T01:06:58.872Z,5.03
2017-06-27T01:09:27.264Z,5.20
2017-06-27T01:11:55.647Z,5.73
2017-06-27T01:14:24.045Z,4.70
2017-06-27T01:16:52.416Z,4.93
2017-06-27T01:19:20.812Z,5.10
2017-06-27T01:21:49.204Z,5.00
2017-06-27T01:24:17.593Z,4.37
2017-06-27T01:26:45.976Z,3.60
2017-06-27T01:29:14.348Z,3.30
2017-06-27T01:31:42.737Z,3.17
2017-06-27T01:34:11.149Z,3.60
2017-06-27T01:36:39.700Z,3.33
2017-06-27T01:39:08.082Z,3.40
2017-06-27T01:41:36.442Z,3.60
2017-06-27T01:44:04.821Z,4.07
2017-06-27T01:46:33.216Z,4.63
2017-06-27T01:49:02.334Z,4.10
2017-06-27T01:51:30.733Z,4.50
2017-06-27T01:53:59.106Z,4.80
2017-06-27T01:56:27.505Z,4.67
2017-06-27T01:58:55.896Z,3.90
2017-06-27T02:01:24.304Z,4.03
2017-06-27T02:03:52.693Z,3.70
2017-06-27T02:06:21.076Z,4.20
2017-06-27T02:08:49.617Z,3.87
2017-06-27T02:11:17.999Z,4.67
2017-06-27T02:13:46.372Z,4.27
2017-06-27T02:16:14.774Z,3.30
2017-06-27T02:18:43.284Z,3.20
2017-06-27T02:21:11.677Z,4.23
2017-06-27T02:23:40.029Z,3.97
2017-06-27T02:26:08.427Z,3.47
2017-06-27T02:28:36.802Z,3.30
2017-06-27T02:31:05.200Z,3.67
2017-06-27T02:33:33.590Z,4.10
2017-06-27T02:36:01.953Z,3.70
2017-06-27T02:38:30.333Z,3.90
2017-06-27T02:40:58.729Z,3.20
2017-06-27T02:43:27.110Z,3.67
2017-06-27T02:45:55.493Z,3.90
2017-06-27T02:48:23.874Z,3.23
2017-06-27T02:50:52.267Z,4.00
2017-06-27T02:53:20.644Z,3.87
2017-06-27T02:55:49.024Z,3.70
2017-06-27T02:58:17.427Z,3.47
2017-06-27T03:00:45.816Z,3.70
2017-06-27T03:03:14.203Z,3.63
2017-06-27T03:05:42.603Z,3.87
2017-06-27T03:08:12.339Z,3.80
2017-06-27T03:10:40.699Z,3.73
2017-06-27T03:13:09.081Z,2.83
2017-06-27T03:15:37.468Z,3.60
2017-06-27T03:18:05.940Z,2.77
2017-06-27T03:20:34.311Z,2.80
2017-06-27T03:23:02.703Z,3.23
2017-06-27T03:25:31.156Z,3.20
2017-06-27T03:27:59.537Z,3.47
2017-06-27T03:30:28.090Z,2.90
2017-06-27T03:32:56.467Z,2.77
2017-06-27T03:35:24.857Z,2.70
2017-06-27T03:37:53.237Z,2.70
2017-06-27T03:40:21.624Z,3.00
2017-06-27T03:42:49.949Z,2.87
2017-06-27T03:45:18.592Z,3.00
2017-06-27T03:47:46.945Z,2.43
2017-06-27T03:50:15.480Z,2.90
2017-06-27T03:52:43.924Z,4.00
2017-06-27T03:55:12.294Z,2.67
2017-06-27T03:57:40.812Z,3.17
2017-06-27T04:00:09.110Z,2.43
2017-06-27T04:02:37.480Z,2.60
2017-06-27T04:05:07.865Z,2.77
2017-06-27T04:07:36.681Z,2.80
2017-06-27T04:10:05.041Z,2.47
2017-06-27T04:12:33.377Z,2.60
2017-06-27T04:15:01.679Z,2.57
2017-06-27T04:17:30.029Z,2.70
2017-06-27T04:19:58.341Z,2.50
2017-06-27T04:22:26.643Z,2.20
2017-06-27T04:24:55.016Z,2.80
2017-06-27T04:27:23.312Z,2.83
2017-06-27T04:29:51.615Z,2.13
2017-06-27T04:32:19.964Z,2.27
2017-06-27T04:34:48.333Z,2.20
2017-06-27T04:37:16.634Z,2.33
2017-06-27T04:39:44.947Z,2.97
2017-06-27T04:42:13.300Z,2.60
2017-06-27T04:44:42.929Z,2.70
2017-06-27T04:47:11.252Z,2.30
2017-06-27T04:49:39.612Z,1.77
2017-06-27T04:52:07.920Z,2.73
2017-06-27T04:54:36.215Z,2.23
2017-06-27T04:57:04.575Z,2.40
2017-06-27T04:59:32.876Z,2.23
2017-06-27T05:02:01.186Z,2.50
2017-06-27T05:04:29.523Z,2.40
2017-06-27T05:06:57.862Z,2.13
2017-06-27T05:09:26.156Z,1.90
2017-06-27T05:11:54.520Z,2.03
2017-06-27T05:14:22.837Z,1.80
2017-06-27T05:16:51.132Z,2.17
2017-06-27T05:19:19.572Z,2.33
2017-06-27T05:21:47.913Z,2.20
2017-06-27T05:24:16.264Z,2.27
2017-06-27T05:26:44.645Z,3.10
2017-06-27T05:29:12.956Z,2.53
2017-06-27T05:31:41.247Z,2.30
2017-06-27T05:34:09.630Z,1.93
2017-06-27T05:36:37.936Z,2.13
2017-06-27T05:39:06.300Z,2.60
2017-06-27T05:41:34.615Z,3.67
2017-06-27T05:44:03.165Z,1.90
2017-06-27T05:46:31.543Z,2.70
2017-06-27T05:49:00.548Z,2.47
2017-06-27T05:51:29.945Z,2.30
2017-06-27T05:53:58.299Z,2.30
2017-06-27T05:56:26.611Z,2.57
2017-06-27T05:58:54.944Z,2.90
2017-06-27T06:01:23.359Z,3.40
2017-06-27T06:03:51.796Z,2.50
2017-06-27T06:06:20.323Z,2.70
2017-06-27T06:08:48.683Z,2.90
2017-06-27T06:11:17.007Z,3.03
2017-06-27T06:13:45.299Z,3.17
2017-06-27T06:16:13.777Z,3.63
2017-06-27T06:18:42.084Z,4.70
2017-06-27T06:21:10.414Z,3.90
2017-06-27T06:23:38.774Z,4.60
2017-06-27T06:26:07.090Z,5.50
2017-06-27T06:28:36.369Z,5.60
2017-06-27T06:31:04.749Z,6.67
2017-06-27T06:33:33.050Z,6.40
2017-06-27T06:36:01.359Z,6.97
2017-06-27T06:38:29.822Z,6.40
2017-06-27T06:40:58.146Z,6.30
2017-06-27T06:43:26.480Z,6.93
2017-06-27T06:45:54.908Z,6.77
2017-06-27T06:48:23.230Z,7.90
2017-06-27T06:50:51.541Z,6.50
2017-06-27T06:53:20.851Z,6.60
2017-06-27T06:55:49.169Z,7.00
2017-06-27T06:58:17.476Z,7.13
2017-06-27T07:00:45.823Z,6.97
2017-06-27T07:03:14.164Z,6.63
2017-06-27T07:05:42.552Z,5.70
2017-06-27T07:08:10.940Z,7.47
2017-06-27T07:10:39.268Z,7.20
2017-06-27T07:13:07.569Z,6.90
2017-06-27T07:15:36.056Z,6.80
2017-06-27T07:18:04.406Z,7.17
2017-06-27T07:20:32.751Z,6.93
2017-06-27T07:23:01.052Z,6.20
2017-06-27T07:25:29.348Z,5.93
2017-06-27T07:27:57.733Z,7.80
2017-06-27T07:30:26.035Z,6.67
2017-06-27T07:32:54.604Z,6.13
2017-06-27T07:35:22.961Z,6.37
2017-06-27T07:37:51.275Z,7.40
2017-06-27T07:40:19.814Z,7.50
2017-06-27T07:42:48.174Z,7.30
2017-06-27T07:45:17.807Z,6.13
2017-06-27T07:47:46.105Z,5.60
2017-06-27T07:50:14.472Z,6.70
2017-06-27T07:52:42.840Z,6.13
2017-06-27T07:55:14.308Z,6.20
2017-06-27T07:57:43.690Z,6.73
2017-06-27T08:00:12.009Z,5.77
2017-06-27T08:02:40.499Z,6.90
2017-06-27T08:05:08.798Z,7.03
2017-06-27T08:07:37.241Z,6.97
2017-06-27T08:10:05.612Z,7.60
2017-06-27T08:12:33.921Z,7.80
2017-06-27T08:15:02.264Z,8.00
2017-06-27T08:17:30.694Z,6.77
2017-06-27T08:19:59.143Z,6.20
2017-06-27T08:22:27.451Z,7.10
2017-06-27T08:24:55.753Z,5.93
2017-06-27T08:27:24.134Z,6.90
2017-06-27T08:29:52.436Z,6.23
2017-06-27T08:32:20.763Z,7.07
2017-06-27T08:34:49.113Z,5.77
2017-06-27T08:37:17.429Z,7.23
2017-06-27T08:39:45.738Z,6.17
2017-06-27T08:42:14.100Z,8.03
2017-06-27T08:44:42.412Z,7.37
2017-06-27T08:47:10.728Z,6.80
2017-06-27T08:49:39.155Z,7.07
2017-06-27T08:52:07.461Z,6.97
2017-06-27T08:54:35.764Z,6.23
2017-06-27T08:57:04.108Z,6.67
2017-06-27T08:59:32.408Z,7.90
2017-06-27T09:02:00.729Z,7.30
2017-06-27T09:04:29.074Z,6.93
2017-06-27T09:06:57.400Z,7.53
2017-06-27T09:09:25.768Z,7.00
2017-06-27T09:11:54.079Z,7.17
2017-06-27T09:14:22.435Z,7.13
2017-06-27T09:16:50.787Z,6.37
2017-06-27T09:19:19.133Z,6.60
2017-06-27T09:21:47.447Z,6.90
2017-06-27T09:24:15.799Z,6.50
2017-06-27T09:26:44.272Z,7.93
2017-06-27T09:29:12.583Z,7.47
2017-06-27T09:31:40.895Z,6.30
2017-06-27T09:34:09.236Z,6.93
2017-06-27T09:36:37.549Z,7.17
2017-06-27T09:39:05.878Z,6.63
2017-06-27T09:41:34.303Z,6.27
2017-06-27T09:44:02.598Z,6.93
2017-06-27T09:46:30.901Z,6.53
2017-06-27T09:48:59.244Z,6.13
2017-06-27T09:51:27.885Z,5.90
2017-06-27T09:53:56.726Z,6.27
2017-06-27T09:56:25.559Z,6.40
2017-06-27T09:58:54.232Z,6.00
2017-06-27T10:01:23.106Z,5.57
2017-06-27T10:03:51.984Z,6.90
2017-06-27T10:06:20.742Z,5.97
2017-06-27T10:08:49.469Z,6.57
2017-06-27T10:11:18.246Z,5.43
2017-06-27T10:13:46.624Z,6.80
2017-06-27T10:16:14.942Z,7.10
2017-06-27T10:18:43.522Z,7.17
2017-06-27T10:21:11.833Z,7.90
2017-06-27T10:23:40.161Z,7.07
2017-06-27T10:26:08.504Z,6.63
2017-06-27T10:28:38.576Z,6.97
2017-06-27T10:31:06.914Z,6.80
2017-06-27T10:33:35.205Z,6.80
2017-06-27T10:36:03.729Z,6.73
2017-06-27T10:38:32.056Z,6.67
2017-06-27T10:41:00.718Z,7.27
2017-06-27T10:43:29.714Z,7.20
2017-06-27T10:45:59.481Z,6.67
2017-06-27T10:48:27.867Z,6.60
2017-06-27T10:50:56.215Z,6.93
2017-06-27T10:53:24.518Z,7.07
2017-06-27T10:55:52.826Z,6.57
2017-06-27T10:58:21.186Z,6.10
2017-06-27T11:00:50.364Z,5.27
2017-06-27T11:03:18.674Z,5.93
2017-06-27T11:05:46.971Z,6.30
2017-06-27T11:08:15.825Z,6.53
2017-06-27T11:10:44.377Z,6.67
2017-06-27T11:13:13.389Z,7.10
2017-06-27T11:15:41.761Z,6.33
2017-06-27T11:24:08.817Z,7.10
2017-06-27T21:10:47.672Z,14.77
2017-06-27T21:13:16.118Z,16.53
2017-06-27T21:15:44.716Z,17.67
2017-06-27T21:18:13.104Z,19.30
2017-06-27T21:20:42.234Z,20.53
2017-06-27T21:23:10.528Z,21.33
2017-06-27T21:25:39.592Z,22.63
2017-06-27T21:28:07.935Z,23.60
2017-06-27T21:30:36.235Z,21.50
2017-06-27T21:33:04.565Z,22.47
2017-06-27T21:35:32.900Z,22.50
2017-06-27T21:38:01.968Z,26.00
2017-06-27T21:40:30.316Z,23.73
2017-06-27T21:42:58.620Z,22.00
2017-06-27T21:45:26.931Z,25.33
2017-06-27T21:47:55.310Z,27.80
2017-06-27T21:50:23.613Z,26.70
2017-06-27T21:52:51.912Z,25.90
2017-06-27T21:55:20.344Z,26.60
2017-06-27T21:57:48.651Z,26.87
2017-06-27T22:00:16.947Z,25.93
2017-06-27T22:02:45.327Z,25.13
2017-06-27T22:05:13.651Z,26.50
2017-06-27T22:07:41.954Z,27.37
2017-06-27T22:10:10.300Z,26.10
2017-06-27T22:12:39.862Z,26.63
2017-06-27T22:15:08.244Z,25.90
2017-06-27T22:17:36.611Z,25.90
2017-06-27T22:20:04.912Z,27.10
2017-06-27T22:22:34.067Z,25.57
2017-06-27T22:25:02.503Z,25.30
2017-06-27T22:27:30.825Z,26.80
2017-06-27T22:29:59.130Z,26.33
2017-06-27T22:32:27.502Z,24.20
2017-06-27T22:34:55.805Z,28.37
2017-06-27T22:37:24.106Z,28.57
2017-06-27T22:39:52.470Z,29.33
2017-06-27T22:42:20.775Z,28.73
2017-06-27T22:44:49.077Z,27.00
2017-06-27T22:47:17.437Z,27.50
2017-06-27T22:49:45.732Z,28.73
2017-06-27T22:52:14.028Z,28.90
2017-06-27T22:54:42.380Z,29.50
2017-06-27T22:57:10.688Z,28.40
2017-06-27T22:59:38.992Z,27.97
2017-06-27T23:02:07.355Z,30.40
2017-06-27T23:04:35.653Z,28.67
2017-06-27T23:07:03.947Z,29.80
2017-06-27T23:09:32.298Z,28.00
2017-06-27T23:12:00.603Z,28.37
2017-06-27T23:14:28.899Z,29.17
2017-06-27T23:16:57.258Z,29.17
2017-06-27T23:19:26.332Z,32.03
2017-06-27T23:21:54.636Z,27.63
2017-06-27T23:24:22.996Z,28.97
2017-06-27T23:26:52.771Z,28.37
2017-06-27T23:29:21.108Z,32.27
2017-06-27T23:31:49.409Z,28.20
2017-06-27T23:34:18.471Z,28.20
2017-06-27T23:36:46.812Z,31.07
2017-06-27T23:39:15.112Z,30.33
2017-06-27T23:41:43.463Z,31.07
2017-06-27T23:44:11.763Z,29.70
2017-06-27T23:46:40.207Z,29.63
2017-06-27T23:49:09.269Z,34.00
2017-06-27T23:51:37.568Z,31.53
2017-06-27T23:54:05.903Z,29.47
2017-06-27T23:56:34.209Z,30.00
2017-06-27T23:59:02.556Z,31.13
